LIPO Airport Information

Runway Information
Runway 14 Length 9810 ft width 148 ft Elevation 353 ft Threshold 984 ft Heading 135
Runway 32 Length 9810 ft Width 148 ft Elevation 333 ft Threshold 640 ft Heading 315
Airport Frequencies
Type APP Name GARDA APP Frequency 124.45 MHZ
Type TWR Name TWR Frequency 119.4 MHZ
Airport Navaids
Type VOR-DME Name Montichiari Frequency 117700 KHZ
Airport Weather Information & NOTAM
ADDS - METARS form results

(0258 UTC 12 August 2022)
Data provider http://aviationweather.gov/metar/data/
 
METAR text: LIPO 120250Z AUTO 01006KT 9999 BKN110/// 22/17 Q1015
Conditions at: LIPO (BRESCIA/MONTICHI, IT) observed 0250 UTC 12 August 2022
Temperature: 22.0°C (72°F)
Dewpoint: 17.0°C (63°F) [RH = 73%]
Pressure (altimeter): 29.97 inches Hg (1015.0 mb)
Winds: from the N (10 degrees) at 7 MPH (6 knots; 3.1 m/s)
Visibility: 6 or more miles (10+ km)
Ceiling: 11000 feet AGL
Clouds: broken clouds at 11000 feet AGL
Weather: no significant weather observed at this time

METAR text: LIPO 120220Z AUTO 01007KT 9999 FEW110/// 22/17 Q1015
Conditions at: LIPO (BRESCIA/MONTICHI, IT) observed 0220 UTC 12 August 2022
Temperature: 22.0°C (72°F)
Dewpoint: 17.0°C (63°F) [RH = 73%]
Pressure (altimeter): 29.97 inches Hg (1015.0 mb)
Winds: from the N (10 degrees) at 8 MPH (7 knots; 3.6 m/s)
Visibility: 6 or more miles (10+ km)
Ceiling: at least 12,000 feet AGL
Clouds: few clouds at 11000 feet AGL
Weather: no significant weather observed at this time

Forecast for: LIPO (BRESCIA/MONTICHI, IT)
Text: TAF LIPO 112300Z 1200/1224 VRB05KT 9999 SCT060
Forecast period: 0000 to 0600 UTC 12 August 2022
Forecast type: FROM: standard forecast or significant change
Winds: variable direction winds at 6 MPH (5 knots; 2.6 m/s)
Visibility: 6 or more miles (10+ km)
Ceiling: at least 12,000 feet AGL
Clouds: scattered clouds at 6000 feet AGL
Weather: no significant weather forecast for this period
Text: BECMG 1206/1208 10012KT
Forecast period: 0600 UTC 12 August 2022 to 0000 UTC 13 August 2022
Forecast type: BECOMING: Conditions expected to become as follows by 0800 UTC 12 August 2022
Winds: from the E (100 degrees) at 14 MPH (12 knots; 6.2 m/s)
Visibility: 6 or more miles (10+ km)
Ceiling: at least 12,000 feet AGL
Clouds: scattered clouds at 6000 feet AGL
Weather: no significant weather forecast for this period
Text: TEMPO 1212/1224 4000 TSRA BKN014
Forecast period: 1200 UTC 12 August 2022 to 0000 UTC 13 August 2022
Forecast type: TEMPORARY: The following changes expected for less than half the time period
Visibility: 2.49 miles (4.01 km)
Ceiling: 1400 feet AGL
Clouds: broken clouds at 1400 feet AGL
Weather: TSRA  (rain associated with thunderstorm(s))